createdAt,value
2023-01-06T00:01:08.903Z,99989.44
2023-01-06T00:03:35.677Z,99996.78
2023-01-06T00:06:04.789Z,100002.72
2023-01-06T00:08:31.481Z,99995.69
2023-01-06T00:10:58.163Z,99993.22
2023-01-06T00:13:24.764Z,99997.53
2023-01-06T00:15:51.396Z,99994.03
2023-01-06T00:18:17.962Z,99991.03
2023-01-06T00:20:44.500Z,99994.84
2023-01-06T00:23:11.049Z,99983.22
2023-01-06T00:25:37.813Z,99974.56
2023-01-06T00:28:04.482Z,99982.41
2023-01-06T00:30:31.041Z,99973.47
2023-01-06T00:32:57.600Z,99974.31
2023-01-06T00:35:24.187Z,99974.00
2023-01-06T00:37:50.819Z,99977.00
2023-01-06T00:40:17.503Z,99968.34
2023-01-06T00:42:44.100Z,99976.75
2023-01-06T00:45:10.819Z,99972.97
2023-01-06T00:47:37.400Z,99974.06
2023-01-06T00:50:04.295Z,99969.72
2023-01-06T00:52:30.923Z,99969.72
2023-01-06T00:54:57.475Z,99980.03
2023-01-06T00:57:24.169Z,99979.50
2023-01-06T00:59:50.843Z,99989.78
2023-01-06T01:02:17.776Z,99989.50
2023-01-06T01:04:44.501Z,99978.16
2023-01-06T01:07:11.084Z,99986.84
2023-01-06T01:09:37.670Z,99980.09
2023-01-06T01:12:10.548Z,99976.28
2023-01-06T01:14:47.533Z,99975.50
2023-01-06T01:17:20.591Z,99976.84
2023-01-06T01:19:48.636Z,99961.69
2023-01-06T01:22:15.349Z,99967.09
2023-01-06T01:24:41.985Z,99965.75
2023-01-06T01:27:09.361Z,99961.94
2023-01-06T01:29:35.970Z,99974.06
2023-01-06T01:32:02.985Z,99967.56
2023-01-06T01:34:29.685Z,99960.84
2023-01-06T01:36:56.787Z,99957.88
2023-01-06T01:39:26.103Z,99975.41
2023-01-06T01:41:54.693Z,99976.78
2023-01-06T01:44:59.008Z,99974.63
2023-01-06T01:47:37.200Z,99981.38
2023-01-06T01:50:34.504Z,99987.34
2023-01-06T01:53:10.928Z,99986.28
2023-01-06T01:55:38.978Z,99980.56
2023-01-06T01:58:22.172Z,99988.97
2023-01-06T02:00:48.727Z,99989.19
2023-01-06T02:03:15.878Z,99985.75
2023-01-06T02:05:46.625Z,99980.66
2023-01-06T02:08:32.777Z,99987.75
2023-01-06T02:10:59.509Z,99981.25
2023-01-06T02:13:26.272Z,99987.75
2023-01-06T02:16:00.902Z,99977.50
2023-01-06T02:19:00.540Z,99982.41
2023-01-06T02:21:33.077Z,99979.44
2023-01-06T02:23:59.563Z,99978.41
2023-01-06T02:26:47.925Z,99978.69
2023-01-06T02:29:14.438Z,99970.31
2023-01-06T02:32:01.754Z,99969.25
2023-01-06T02:34:33.925Z,99967.31
2023-01-06T02:37:11.846Z,99966.28
2023-01-06T02:39:49.408Z,99960.91
2023-01-06T02:42:34.587Z,99956.31
2023-01-06T02:45:28.372Z,99966.88
2023-01-06T02:48:26.871Z,99960.97
2023-01-06T02:51:09.373Z,99955.00
2023-01-06T02:54:18.200Z,99950.16
2023-01-06T02:56:54.468Z,99949.06
2023-01-06T02:59:27.940Z,99932.31
2023-01-06T03:01:55.942Z,99936.41
2023-01-06T03:04:31.733Z,99938.28
2023-01-06T03:07:02.561Z,99931.00
2023-01-06T03:09:36.764Z,99931.25
2023-01-06T03:12:12.560Z,99931.25
2023-01-06T03:14:45.800Z,99923.69
2023-01-06T03:17:12.559Z,99922.09
2023-01-06T03:19:39.429Z,99927.47
2023-01-06T03:22:07.089Z,99914.50
2023-01-06T03:24:35.971Z,99914.75
2023-01-06T03:27:03.959Z,99925.28
2023-01-06T03:29:31.021Z,99920.97
2023-01-06T03:32:03.785Z,99917.97
2023-01-06T03:34:36.495Z,99918.78
2023-01-06T03:37:31.498Z,99907.47
2023-01-06T03:40:31.578Z,99919.34
2023-01-06T03:43:13.141Z,99914.19
2023-01-06T03:46:17.253Z,99914.47
2023-01-06T03:48:49.516Z,99902.84
2023-01-06T03:51:38.148Z,99914.44
2023-01-06T03:54:28.576Z,99909.00
2023-01-06T03:57:04.287Z,99918.72
2023-01-06T03:59:35.299Z,99913.31
2023-01-06T04:02:02.977Z,99921.94
2023-01-06T04:04:29.540Z,99920.59
2023-01-06T04:06:56.159Z,99906.81
2023-01-06T04:09:22.754Z,99910.84
2023-01-06T04:12:07.740Z,99909.53
2023-01-06T04:14:34.428Z,99906.25
2023-01-06T04:17:00.969Z,99912.19
2023-01-06T04:19:27.524Z,99915.44
2023-01-06T04:21:54.074Z,99910.56
2023-01-06T04:24:20.618Z,99907.56
2023-01-06T04:26:47.237Z,99887.88
2023-01-06T04:29:13.760Z,99890.56
2023-01-06T04:31:40.362Z,99898.69
2023-01-06T04:34:07.169Z,99897.06
2023-01-06T04:36:33.816Z,99897.06
2023-01-06T04:39:00.478Z,99897.63
2023-01-06T04:41:27.114Z,99897.09
2023-01-06T04:43:53.726Z,99897.38
2023-01-06T04:46:20.284Z,99891.69
2023-01-06T04:48:46.861Z,99881.16
2023-01-06T04:51:13.457Z,99883.31
2023-01-06T04:53:41.595Z,99891.13
2023-01-06T04:56:11.448Z,99883.59
2023-01-06T04:58:38.513Z,99875.50
2023-01-06T05:01:07.912Z,99884.13
2023-01-06T05:03:36.098Z,99880.38
2023-01-06T05:06:05.144Z,99878.25
2023-01-06T05:08:32.491Z,99889.03
2023-01-06T05:11:01.000Z,99892.03
2023-01-06T05:13:28.809Z,99891.47
2023-01-06T05:15:55.414Z,99878.78
2023-01-06T05:18:22.173Z,99881.72
2023-01-06T05:20:53.224Z,99884.94
2023-01-06T05:23:20.844Z,99877.13
2023-01-06T05:25:47.595Z,99887.69
2023-01-06T05:28:14.173Z,99882.00
2023-01-06T05:30:40.779Z,99895.50
2023-01-06T05:33:07.641Z,99887.41
2023-01-06T05:35:34.323Z,99889.56
2023-01-06T05:38:00.859Z,99886.88
2023-01-06T05:40:28.424Z,99897.66
2023-01-06T05:42:55.840Z,99893.34
2023-01-06T05:45:23.878Z,99903.59
2023-01-06T05:47:51.002Z,99895.50
2023-01-06T05:50:17.830Z,99894.72
2023-01-06T05:52:44.651Z,99909.81
2023-01-06T05:55:11.480Z,99909.00
2023-01-06T05:57:38.174Z,99909.53
2023-01-06T06:00:06.523Z,99906.75
2023-01-06T06:02:33.191Z,99914.97
2023-01-06T06:04:59.829Z,99916.25
2023-01-06T06:07:26.448Z,99922.03
2023-01-06T06:09:53.063Z,99911.72
2023-01-06T06:12:19.728Z,99919.72
2023-01-06T06:14:46.299Z,99910.25
2023-01-06T06:17:12.933Z,99915.13
2023-01-06T06:19:39.522Z,99917.97
2023-01-06T06:22:06.113Z,99921.69
2023-01-06T06:24:32.729Z,99925.31
2023-01-06T06:26:59.340Z,99924.44
2023-01-06T06:29:25.958Z,99925.81
2023-01-06T06:31:52.522Z,99924.31
2023-01-06T06:34:19.089Z,99932.31
2023-01-06T06:36:45.790Z,99925.34
2023-01-06T06:39:12.383Z,99931.59
2023-01-06T06:41:38.963Z,99926.72
2023-01-06T06:44:05.722Z,99934.56
2023-01-06T06:46:32.370Z,99926.66
2023-01-06T06:48:59.060Z,99944.91
2023-01-06T06:51:25.692Z,99936.19
2023-01-06T06:53:52.418Z,99944.66
2023-01-06T06:56:20.328Z,99948.44
2023-01-06T06:58:47.482Z,99954.25
2023-01-06T07:01:16.759Z,99939.19
2023-01-06T07:03:43.624Z,99957.53
2023-01-06T07:06:16.299Z,99942.66
2023-01-06T07:08:44.514Z,99947.69
2023-01-06T07:11:11.101Z,99949.16
2023-01-06T07:13:37.666Z,99947.84
2023-01-06T07:16:04.820Z,99949.09
2023-01-06T07:18:31.403Z,99953.00
2023-01-06T07:20:58.106Z,99949.03
2023-01-06T07:23:25.273Z,99955.59
2023-01-06T07:25:56.950Z,99957.53
2023-01-06T07:28:24.531Z,99963.56
2023-01-06T07:30:51.950Z,99968.19
2023-01-06T07:33:19.519Z,99958.50
2023-01-06T07:35:46.519Z,99955.03
2023-01-06T07:38:13.093Z,99952.38
2023-01-06T07:40:39.866Z,99952.44
2023-01-06T07:43:11.210Z,99953.00
2023-01-06T07:45:38.242Z,99962.19
2023-01-06T07:48:05.448Z,99958.41
2023-01-06T07:50:32.871Z,99958.69
2023-01-06T07:53:01.540Z,99954.38
2023-01-06T07:55:28.748Z,99950.31
2023-01-06T07:57:55.412Z,99954.63
2023-01-06T08:00:22.434Z,99949.75
2023-01-06T08:02:49.155Z,99959.19
2023-01-06T08:05:16.019Z,99964.34
2023-01-06T08:07:42.708Z,99952.75
2023-01-06T08:10:09.452Z,99952.50
2023-01-06T08:12:37.293Z,99957.38
2023-01-06T08:15:05.779Z,99949.22
2023-01-06T08:17:32.639Z,99961.94
2023-01-06T08:19:59.207Z,99961.13
2023-01-06T08:22:25.802Z,99957.34
2023-01-06T08:24:52.416Z,99949.22
2023-01-06T08:27:20.832Z,99950.31
2023-01-06T08:29:50.017Z,99944.69
2023-01-06T08:32:16.884Z,99943.09
2023-01-06T08:34:43.661Z,99961.78
2023-01-06T08:37:10.309Z,99958.03
2023-01-06T08:39:36.878Z,99944.50
2023-01-06T08:42:03.597Z,99948.28
2023-01-06T08:44:30.218Z,99959.63
2023-01-06T08:46:57.010Z,99958.53
2023-01-06T08:49:23.811Z,99952.06
2023-01-06T08:51:50.469Z,99965.56
2023-01-06T08:54:17.076Z,99961.78
2023-01-06T08:56:44.752Z,99961.78
2023-01-06T08:59:16.690Z,99970.16
2023-01-06T09:01:44.714Z,99972.06
2023-01-06T09:04:12.971Z,99975.25
2023-01-06T09:06:42.396Z,99979.56
2023-01-06T09:09:09.761Z,99986.31
2023-01-06T09:11:36.399Z,99994.69
2023-01-06T09:14:03.375Z,99995.81
2023-01-06T09:16:29.982Z,99995.81
2023-01-06T09:18:56.660Z,99990.94
2023-01-06T09:21:23.749Z,99990.63
2023-01-06T09:23:50.620Z,99990.38
2023-01-06T09:26:18.571Z,99998.22
2023-01-06T09:28:45.114Z,100002.25
2023-01-06T09:31:12.086Z,100001.13
2023-01-06T09:33:39.064Z,100008.13
2023-01-06T09:36:06.623Z,100006.25
2023-01-06T09:38:33.489Z,100004.09
2023-01-06T09:41:05.925Z,99998.16
2023-01-06T09:43:54.594Z,99990.06
2023-01-06T09:46:26.084Z,100004.88
2023-01-06T09:49:09.839Z,100004.94
2023-01-06T09:51:38.028Z,100004.38
2023-01-06T09:54:15.599Z,99993.56
2023-01-06T09:56:46.197Z,100005.72
2023-01-06T09:59:22.795Z,100003.81
2023-01-06T10:01:50.789Z,100011.38
2023-01-06T10:04:24.666Z,100013.81
2023-01-06T10:07:19.921Z,100016.78
2023-01-06T10:09:59.771Z,100019.50
2023-01-06T10:12:47.628Z,100030.06
2023-01-06T10:15:40.481Z,100024.44
2023-01-06T10:18:19.367Z,100012.53
2023-01-06T10:20:52.842Z,99999.03
2023-01-06T10:23:38.177Z,100007.09
2023-01-06T10:26:21.870Z,100001.97
2023-01-06T10:28:53.895Z,99995.16
2023-01-06T10:31:22.917Z,99997.34
2023-01-06T10:33:59.753Z,99994.09
2023-01-06T10:36:32.516Z,99979.72
2023-01-06T10:39:03.444Z,99989.19
2023-01-06T10:41:32.735Z,99991.84
2023-01-06T10:43:59.622Z,99992.97
2023-01-06T10:46:34.076Z,99988.34
2023-01-06T10:49:02.003Z,99996.44
2023-01-06T10:51:45.652Z,99982.63
2023-01-06T10:54:15.148Z,99978.56
2023-01-06T10:56:48.501Z,99982.59
2023-01-06T10:59:15.229Z,99989.25
2023-01-06T11:02:21.982Z,99980.88
2023-01-06T11:04:52.028Z,99981.34
2023-01-06T11:07:19.303Z,99985.06
2023-01-06T11:09:46.132Z,99984.44
2023-01-06T11:12:32.981Z,99995.28
2023-01-06T11:15:01.972Z,99987.16
2023-01-06T11:17:29.932Z,99981.50
2023-01-06T11:20:14.256Z,99990.53
2023-01-06T11:22:42.315Z,99987.81
2023-01-06T11:25:21.340Z,99978.63
2023-01-06T11:27:50.147Z,99978.06
2023-01-06T11:30:28.396Z,99982.38
2023-01-06T11:32:55.575Z,99970.47
2023-01-06T11:35:26.266Z,99964.47
2023-01-06T11:38:02.572Z,99977.94
2023-01-06T11:40:32.363Z,99969.78
2023-01-06T11:43:03.345Z,99957.59
2023-01-06T11:45:35.405Z,99964.34
2023-01-06T11:48:03.178Z,99954.88
2023-01-06T11:50:30.200Z,99947.78
2023-01-06T11:53:02.253Z,99944.81
2023-01-06T11:55:28.989Z,99945.91
2023-01-06T11:58:05.519Z,99954.94
2023-01-06T12:00:41.348Z,99953.34
2023-01-06T12:03:10.784Z,99950.34
2023-01-06T12:06:09.798Z,99941.47
2023-01-06T12:09:02.300Z,99944.69
2023-01-06T12:11:45.662Z,99950.03
2023-01-06T12:14:28.453Z,99938.28
2023-01-06T12:17:04.795Z,99942.88
2023-01-06T12:19:53.000Z,99930.19
2023-01-06T12:22:27.710Z,99927.28
2023-01-06T12:24:56.590Z,99928.88
2023-01-06T12:27:48.730Z,99920.28
2023-01-06T12:30:41.484Z,99936.31
2023-01-06T12:33:22.126Z,99922.25
2023-01-06T12:35:54.057Z,99922.53
2023-01-06T12:38:51.464Z,99922.59
2023-01-06T12:41:39.368Z,99925.63
2023-01-06T12:44:20.985Z,99914.56
2023-01-06T12:47:13.451Z,99917.28
2023-01-06T12:50:02.295Z,99922.69
2023-01-06T12:52:38.337Z,99920.56
2023-01-06T12:55:05.835Z,99919.47
2023-01-06T12:57:38.597Z,99927.06
2023-01-06T13:00:33.149Z,99930.84
2023-01-06T13:03:18.908Z,99922.75
2023-01-06T13:06:06.359Z,99929.25
2023-01-06T13:09:01.817Z,99929.81
2023-01-06T13:11:46.593Z,99928.78
2023-01-06T13:14:48.172Z,99924.16
2023-01-06T13:17:41.905Z,99922.28
2023-01-06T13:20:20.599Z,99917.63
2023-01-06T13:23:04.164Z,99920.63
2023-01-06T13:25:44.777Z,99915.78
2023-01-06T13:28:39.503Z,99904.97
2023-01-06T13:31:49.011Z,99908.75
2023-01-06T13:34:15.581Z,99913.59
2023-01-06T13:37:18.110Z,99906.56
2023-01-06T13:39:45.996Z,99900.13
2023-01-06T13:42:19.339Z,99917.41
2023-01-06T13:44:49.238Z,99917.66
2023-01-06T13:47:21.177Z,99903.94
2023-01-06T13:49:48.242Z,99911.53
2023-01-06T13:52:26.171Z,99901.81
2023-01-06T13:55:00.269Z,99900.78
2023-01-06T13:57:35.943Z,99906.50
2023-01-06T14:00:14.395Z,99899.84
2023-01-06T14:02:42.760Z,99908.47
2023-01-06T14:05:29.303Z,99909.00
2023-01-06T14:08:01.594Z,99914.63
2023-01-06T14:10:37.202Z,99917.06
2023-01-06T14:13:17.756Z,99900.84
2023-01-06T14:16:01.672Z,99910.56
2023-01-06T14:18:36.810Z,99912.47
2023-01-06T14:21:14.747Z,99906.25
2023-01-06T14:23:57.037Z,99909.78
2023-01-06T14:26:42.052Z,99895.81
2023-01-06T14:29:39.831Z,99905.00
2023-01-06T14:32:11.805Z,99904.69
2023-01-06T14:34:45.009Z,99905.78
2023-01-06T14:37:14.075Z,99899.03
2023-01-06T14:39:46.684Z,99901.47
2023-01-06T14:42:39.262Z,99898.78
2023-01-06T14:45:19.128Z,99902.03
2023-01-06T14:47:53.066Z,99898.25
2023-01-06T14:50:24.878Z,99893.94
2023-01-06T14:52:56.666Z,99893.94
2023-01-06T14:55:26.454Z,99895.56
2023-01-06T14:57:53.176Z,99890.97
2023-01-06T15:00:26.992Z,99904.19
2023-01-06T15:02:55.562Z,99909.06
2023-01-06T15:05:34.699Z,99899.34
2023-01-06T15:08:04.386Z,99903.91
2023-01-06T15:10:51.217Z,99898.25
2023-01-06T15:13:31.899Z,99904.19
2023-01-06T15:16:01.550Z,99905.81
2023-01-06T15:18:28.270Z,99905.81
2023-01-06T15:20:55.404Z,99905.81
2023-01-06T15:23:23.550Z,99908.22
2023-01-06T15:25:52.794Z,99902.03
2023-01-06T15:28:30.501Z,99904.44
2023-01-06T15:30:58.500Z,99903.88
2023-01-06T15:33:33.101Z,99912.50
2023-01-06T15:36:00.200Z,99911.19
2023-01-06T15:38:47.172Z,99912.84
2023-01-06T15:41:32.582Z,99916.06
2023-01-06T15:44:01.397Z,99910.66
2023-01-06T15:46:38.933Z,99911.25
2023-01-06T15:49:06.774Z,99914.25
2023-01-06T15:51:33.789Z,99912.34
2023-01-06T15:54:00.529Z,99909.66
2023-01-06T15:56:30.198Z,99915.09
2023-01-06T15:58:58.866Z,99910.25
2023-01-06T16:01:25.960Z,99911.34
2023-01-06T16:03:56.082Z,99913.25
2023-01-06T16:06:29.613Z,99916.47
2023-01-06T16:09:25.856Z,99911.63
2023-01-06T16:12:19.670Z,99909.75
2023-01-06T16:14:49.350Z,99913.50
2023-01-06T16:17:40.860Z,99912.97
2023-01-06T16:20:21.258Z,99916.47
2023-01-06T16:22:51.543Z,99914.63
2023-01-06T16:25:21.151Z,99918.41
2023-01-06T16:27:49.755Z,99912.19
2023-01-06T16:30:20.515Z,99916.50
2023-01-06T16:32:48.117Z,99914.31
2023-01-06T16:35:19.874Z,99909.19
2023-01-06T16:37:46.474Z,99914.28
2023-01-06T16:40:15.207Z,99910.25
2023-01-06T16:42:43.000Z,99899.44
2023-01-06T16:45:34.454Z,99903.25
2023-01-06T16:48:01.553Z,99903.47
2023-01-06T16:50:31.142Z,99899.41
2023-01-06T16:53:18.708Z,99889.94
2023-01-06T16:55:45.804Z,99898.31
2023-01-06T16:58:22.734Z,99908.59
2023-01-06T17:00:52.064Z,99903.19
2023-01-06T17:03:21.377Z,99908.03
2023-01-06T17:05:48.212Z,99910.75
2023-01-06T17:08:16.762Z,99915.91
2023-01-06T17:10:44.273Z,99909.97
2023-01-06T17:13:33.438Z,99917.28
2023-01-06T17:16:13.704Z,99914.06
2023-01-06T17:18:49.905Z,99913.03
2023-01-06T17:21:19.732Z,99918.41
2023-01-06T17:23:50.702Z,99911.09
2023-01-06T17:26:19.886Z,99910.31
2023-01-06T17:28:49.083Z,99910.31
2023-01-06T17:31:39.639Z,99914.63
2023-01-06T17:34:18.833Z,99903.81
2023-01-06T17:36:47.434Z,99915.19
2023-01-06T17:39:23.744Z,99917.34
2023-01-06T17:41:57.328Z,99917.88
2023-01-06T17:44:50.082Z,99920.31
2023-01-06T17:47:16.735Z,99917.31
2023-01-06T17:50:00.287Z,99924.34
2023-01-06T17:52:32.433Z,99911.94
2023-01-06T17:55:20.113Z,99915.69
2023-01-06T17:57:47.584Z,99920.03
2023-01-06T18:00:23.950Z,99920.56
2023-01-06T18:03:18.965Z,99928.41
2023-01-06T18:05:45.699Z,99930.31
2023-01-06T18:08:14.704Z,99919.50
2023-01-06T18:10:43.601Z,99929.22
2023-01-06T18:13:21.699Z,99925.44
2023-01-06T18:15:55.325Z,99924.06
2023-01-06T18:18:29.288Z,99915.66
2023-01-06T18:21:04.087Z,99922.16
2023-01-06T18:23:34.106Z,99930.03
2023-01-06T18:26:06.120Z,99932.44
2023-01-06T18:28:32.615Z,99920.63
2023-01-06T18:31:02.589Z,99924.69
2023-01-06T18:33:30.212Z,99928.44
2023-01-06T18:35:59.531Z,99924.63
2023-01-06T18:38:27.540Z,99933.53
2023-01-06T18:40:54.877Z,99931.91
2023-01-06T18:43:29.703Z,99941.63
2023-01-06T18:46:01.652Z,99931.38
2023-01-06T18:48:33.749Z,99933.03
2023-01-06T18:51:01.439Z,99931.41
2023-01-06T18:53:31.734Z,99931.91
2023-01-06T18:56:03.359Z,99927.09
2023-01-06T18:58:52.292Z,99925.47
2023-01-06T19:01:23.303Z,99923.84
2023-01-06T19:04:14.727Z,99925.25
2023-01-06T19:06:47.048Z,99930.34
2023-01-06T19:09:21.299Z,99922.25
2023-01-06T19:12:01.877Z,99925.25
2023-01-06T19:14:32.560Z,99916.84
2023-01-06T19:16:59.316Z,99920.63
2023-01-06T19:19:48.258Z,99934.16
2023-01-06T19:22:14.964Z,99923.34
2023-01-06T19:24:44.245Z,99919.84
2023-01-06T19:27:30.806Z,99918.22
2023-01-06T19:30:22.641Z,99912.53
2023-01-06T19:32:49.239Z,99924.69
2023-01-06T19:35:35.352Z,99913.09
2023-01-06T19:38:09.703Z,99904.72
2023-01-06T19:40:41.837Z,99903.38
2023-01-06T19:43:11.163Z,99906.69
2023-01-06T19:45:37.829Z,99913.94
2023-01-06T19:48:20.213Z,99908.81
2023-01-06T19:50:46.800Z,99904.47
2023-01-06T19:53:44.102Z,99905.56
2023-01-06T19:56:23.380Z,99895.78
2023-01-06T19:59:02.676Z,99904.72
2023-01-06T20:01:32.732Z,99902.81
2023-01-06T20:03:59.454Z,99909.81
2023-01-06T20:06:26.060Z,99909.81
2023-01-06T20:08:53.688Z,99904.41
2023-01-06T20:11:22.346Z,99904.72
2023-01-06T20:13:49.280Z,99909.81
2023-01-06T20:16:15.961Z,99900.63
2023-01-06T20:18:42.577Z,99909.81
2023-01-06T20:21:09.142Z,99908.22
2023-01-06T20:23:35.729Z,99904.41
2023-01-06T20:26:02.291Z,99896.84
2023-01-06T20:28:28.959Z,99890.06
2023-01-06T20:30:55.627Z,99894.09
2023-01-06T20:33:22.160Z,99896.00
2023-01-06T20:35:48.726Z,99890.28
2023-01-06T20:38:15.309Z,99885.72
2023-01-06T20:40:41.869Z,99888.69
2023-01-06T20:43:08.436Z,99885.97
2023-01-06T20:45:35.211Z,99882.47
2023-01-06T20:48:02.178Z,99875.47
2023-01-06T20:50:29.065Z,99878.44
2023-01-06T20:52:55.780Z,99868.44
2023-01-06T20:55:22.700Z,99880.63
2023-01-06T20:57:49.567Z,99877.41
2023-01-06T21:00:16.424Z,99876.81
2023-01-06T21:02:43.156Z,99875.22
2023-01-06T21:05:10.306Z,99875.22
2023-01-06T21:07:36.937Z,99878.44
2023-01-06T21:10:04.170Z,99884.94
2023-01-06T21:12:30.837Z,99881.97
2023-01-06T21:14:57.412Z,99887.06
2023-01-06T21:17:24.221Z,99884.09
2023-01-06T21:19:50.832Z,99878.69
2023-01-06T21:22:17.399Z,99877.31
2023-01-06T21:24:44.020Z,99868.94
2023-01-06T21:27:10.575Z,99866.50
2023-01-06T21:29:37.174Z,99864.38
2023-01-06T21:32:03.859Z,99868.69
2023-01-06T21:34:30.781Z,99860.56
2023-01-06T21:36:57.409Z,99863.53
2023-01-06T21:39:23.973Z,99857.34
2023-01-06T21:42:09.222Z,99866.50
2023-01-06T21:44:36.265Z,99853.28
2023-01-06T21:47:03.823Z,99855.16
2023-01-06T21:49:31.020Z,99854.66
2023-01-06T21:52:00.136Z,99848.16
2023-01-06T21:54:26.916Z,99853.56
2023-01-06T21:56:54.483Z,99850.31
2023-01-06T21:59:21.110Z,99852.44
2023-01-06T22:01:47.920Z,99847.03
2023-01-06T22:04:14.864Z,99852.44
2023-01-06T22:06:43.748Z,99839.00
2023-01-06T22:09:14.246Z,99840.59
2023-01-06T22:11:42.125Z,99841.13
2023-01-06T22:14:10.105Z,99843.25
2023-01-06T22:16:39.904Z,99842.19
2023-01-06T22:19:07.935Z,99838.94
2023-01-06T22:21:36.168Z,99833.53
2023-01-06T22:24:06.486Z,99833.84
2023-01-06T22:26:33.239Z,99829.22
2023-01-06T22:28:59.836Z,99833.00
2023-01-06T22:31:26.418Z,99829.78
2023-01-06T22:33:53.011Z,99831.19
2023-01-06T22:36:19.618Z,99827.66
2023-01-06T22:38:46.217Z,99829.56
2023-01-06T22:41:12.933Z,99835.78
2023-01-06T22:43:39.619Z,99840.38
2023-01-06T22:46:06.259Z,99835.19
2023-01-06T22:48:32.911Z,99837.31
2023-01-06T22:51:02.753Z,99841.63
2023-01-06T22:53:30.433Z,99842.47
2023-01-06T22:56:04.424Z,99841.13
2023-01-06T22:58:32.586Z,99838.94
2023-01-06T23:00:59.194Z,99837.84
2023-01-06T23:03:26.584Z,99836.78
2023-01-06T23:05:59.322Z,99832.16
2023-01-06T23:08:27.697Z,99838.91
2023-01-06T23:11:04.757Z,99827.56
2023-01-06T23:13:32.276Z,99829.19
2023-01-06T23:16:13.431Z,99818.94
2023-01-06T23:18:41.855Z,99823.78
2023-01-06T23:21:11.954Z,99822.69
2023-01-06T23:23:40.176Z,99817.28
2023-01-06T23:26:20.096Z,99815.94
2023-01-06T23:28:46.777Z,99814.63
2023-01-06T23:31:15.355Z,99807.59
2023-01-06T23:33:47.405Z,99811.91
2023-01-06T23:36:14.696Z,99819.50
2023-01-06T23:38:41.596Z,99816.22
2023-01-06T23:41:14.290Z,99810.59
2023-01-06T23:43:41.401Z,99811.41
2023-01-06T23:46:13.432Z,99812.22
2023-01-06T23:48:40.122Z,99804.72
2023-01-06T23:51:07.896Z,99808.16
2023-01-06T23:53:36.583Z,99805.19
2023-01-06T23:56:05.419Z,99800.59
2023-01-06T23:58:33.913Z,99796.78
